Salisbury, MD (21801)

11:47 PM EDT on September 04, 2015 (GMT -0400)
Pemberton | | Change Station
CLOSE
Current Station
Personal Weather Station
Location: Salisbury, MD
Elevation: 26 ft
Nearby Weather Stations

Elev 26 ft 38.36 °N, 75.62 °W | Updated 15 minutes ago

Clear
Clear
74.4 °F
Feels Like 73 °F
N
3.7
Wind Variable Wind from North
Gusts 3.7 mph

Today
High -- | Low -- °F
--% Chance of Precip.
Yesterday
High -- | Low -- °F
Precip. -- in
6:34 AM 7:28 PM
Waning Gibbous, 53% visible
Pressure 30.12 in
Visibility 7.0 miles
Clouds Few 2500 ft
Heat Index 73 °F
Dew Point 71 °F
Humidity 90%
Rainfall 0.00 in
Snow Depth Not available.
UV 0 out of 12
Pollen 9.40 out of 12
Air Quality Not available.
Flu Activity Not available.
METAR KSBY 050254Z AUTO 04006KT 7SM FEW025 23/22 A3011 RMK AO2 SLP199 T02280217 51016
Pressure 30.12 in
Visibility 7.0 miles
Clouds Few 2500 ft
Heat Index 73 °F
Dew Point 71 °F
Humidity 90%
Rainfall 0.00 in
Snow Depth Not available.
UV 0 out of 12
Pollen 9.40 out of 12
Air Quality Not available.
Flu Activity Not available.
METAR KSBY 050254Z AUTO 04006KT 7SM FEW025 23/22 A3011 RMK AO2 SLP199 T02280217 51016

10-Day Weather Forecast

×

Almanac

Astronomy

Sep. 04, 2015 Rise Set
Actual Time
Civil Twilight
Nautical Twilight
Astronomical Twilight
Moon
Length of Visible Light
Length of Day
Tomorrow will be .
, % of the Moon is Illuminated

Today's Extremes

State Highs State Lows

Community

WunderPhotos

Upload Photos

1,852,408 photos uploaded!

WunderBlogs® & News

Nearby

Air Quality

  Air Quality AQ Index Pollutant
Not available.

Snow Depth

Station Depth Elevation

Earthquake Activity

City Distance Mag. Time & Date
Minimum magnitude displayed is 2.5.

Coastal Water Temperatures

Place Temperature

Stations

Nearby Weather Stations

Station Location Temp. Windchill Dew Point Humidity Wind Precip. Elev Updated Type